createdAt,value
2022-09-26T05:31:44.608Z,4.13
2022-09-26T05:34:48.952Z,4.63
2022-09-26T05:37:59.441Z,4.20
2022-09-26T05:41:01.588Z,4.07
2022-09-26T05:44:03.511Z,3.95
2022-09-26T05:47:05.326Z,4.20
2022-09-26T05:50:10.318Z,4.50
2022-09-26T05:53:12.233Z,4.68
2022-09-26T05:56:19.031Z,4.57
2022-09-26T05:59:21.543Z,4.30
2022-09-26T06:02:24.052Z,4.18
2022-09-26T06:05:26.149Z,3.63
2022-09-26T06:08:30.938Z,3.33
2022-09-26T06:11:33.010Z,4.07
2022-09-26T06:49:59.384Z,2.67
2022-09-26T06:53:11.737Z,3.25
2022-09-26T06:56:17.536Z,3.42
2022-09-26T06:59:23.553Z,2.90
2022-09-26T07:02:37.556Z,2.85
2022-09-26T07:05:40.003Z,3.58
2022-09-26T07:09:01.641Z,2.72
2022-09-26T07:12:15.302Z,2.75
2022-09-26T07:15:23.022Z,3.38
2022-09-26T07:18:31.281Z,2.72
2022-09-26T07:21:34.072Z,3.13
2022-09-26T07:24:40.205Z,2.70
2022-09-26T07:27:42.229Z,2.92
2022-09-26T07:30:44.334Z,2.33
2022-09-26T07:33:47.557Z,2.25
2022-09-26T07:36:51.808Z,2.90
2022-09-26T07:39:57.129Z,2.20
2022-09-26T07:43:19.278Z,2.40
2022-09-26T07:46:42.822Z,2.70
2022-09-26T07:50:10.632Z,2.13
2022-09-26T07:53:12.964Z,2.20
2022-09-26T07:56:20.385Z,2.00
2022-09-26T07:59:23.055Z,2.30
2022-09-26T08:02:36.554Z,1.90
2022-09-26T08:05:38.840Z,2.10
2022-09-26T08:08:42.536Z,1.92
2022-09-26T08:11:44.439Z,1.50
2022-09-26T08:14:49.358Z,1.85
2022-09-26T08:17:51.933Z,1.73
2022-09-26T08:20:54.111Z,1.90
2022-09-26T08:23:56.163Z,1.77
2022-09-26T08:27:02.282Z,1.70
2022-09-26T08:30:05.113Z,1.75
2022-09-26T08:33:08.949Z,1.50
2022-09-26T08:36:13.429Z,1.70
2022-09-26T08:39:16.012Z,1.55
2022-09-26T08:42:36.462Z,1.80
2022-09-26T08:46:14.367Z,1.85
2022-09-26T08:49:41.998Z,2.97
2022-09-26T08:53:06.501Z,2.13
2022-09-26T08:56:19.955Z,1.93
2022-09-26T08:59:43.556Z,1.67
2022-09-26T09:03:12.325Z,1.40
2022-09-26T09:06:15.183Z,1.48
2022-09-26T09:09:17.792Z,1.80
2022-09-26T09:12:40.914Z,1.35
2022-09-26T09:16:18.696Z,1.90
2022-09-26T09:19:36.949Z,1.52
2022-09-26T09:23:07.634Z,2.80
2022-09-26T09:29:57.904Z,2.33
2022-09-26T09:33:04.018Z,2.10
2022-09-26T09:36:15.428Z,1.45
2022-09-26T09:39:30.393Z,1.00
2022-09-26T09:42:47.999Z,1.25
2022-09-26T09:45:52.209Z,1.27
2022-09-26T09:48:59.413Z,1.45
2022-09-26T09:52:33.234Z,1.48
2022-09-26T09:56:00.769Z,1.60
2022-09-26T09:59:33.563Z,1.33
2022-09-26T10:03:01.486Z,0.90
2022-09-26T10:06:44.458Z,1.00
2022-09-26T10:09:41.350Z,1.00
2022-09-26T10:12:44.702Z,1.27
2022-09-26T10:15:58.240Z,1.08
2022-09-26T10:19:06.336Z,1.42
2022-09-26T10:22:37.790Z,1.20
2022-09-26T10:25:48.927Z,1.08
2022-09-26T10:28:55.772Z,2.60
2022-09-26T10:32:01.131Z,1.23
2022-09-26T10:35:19.770Z,1.80
2022-09-26T10:38:29.545Z,1.17
2022-09-26T10:41:40.625Z,1.50
2022-09-26T10:44:43.182Z,1.00
2022-09-26T10:47:52.006Z,1.70
2022-09-26T10:51:00.582Z,1.30
2022-09-26T10:54:09.034Z,1.10
2022-09-26T10:57:22.149Z,1.00
2022-09-26T11:00:43.629Z,2.08
2022-09-26T11:03:46.275Z,4.97
2022-09-26T11:06:49.672Z,1.60
2022-09-26T11:09:53.340Z,1.63
2022-09-26T11:12:57.891Z,1.45
2022-09-26T11:16:08.877Z,1.20
2022-09-26T11:19:36.940Z,1.20
2022-09-26T11:22:45.286Z,1.20
2022-09-26T11:26:09.132Z,0.98
2022-09-26T11:29:38.613Z,1.20
2022-09-26T11:32:43.924Z,1.23
2022-09-26T11:36:11.022Z,1.27
2022-09-26T11:39:42.488Z,1.20
2022-09-26T11:43:09.076Z,1.73
2022-09-26T11:46:39.211Z,1.70
2022-09-26T11:49:59.619Z,1.88
2022-09-26T11:53:33.810Z,0.93
2022-09-26T11:57:08.709Z,0.90
2022-09-26T12:00:24.538Z,0.95
2022-09-26T12:03:53.851Z,0.95
2022-09-26T12:07:08.179Z,0.80
2022-09-26T12:10:35.287Z,0.80
2022-09-26T12:14:09.301Z,0.70
2022-09-26T12:17:43.989Z,0.88
2022-09-26T12:21:17.157Z,0.88
2022-09-26T12:24:31.097Z,1.00
2022-09-26T12:27:59.309Z,0.90
2022-09-26T12:31:23.240Z,0.80
2022-09-26T12:34:40.799Z,1.08
2022-09-26T12:37:53.340Z,1.23
2022-09-26T12:41:23.069Z,0.90
2022-09-26T12:44:32.997Z,1.45
2022-09-26T12:47:55.665Z,0.70
2022-09-26T12:51:08.982Z,1.20
2022-09-26T12:54:50.675Z,0.65
2022-09-26T12:58:06.200Z,0.70
2022-09-26T13:05:05.992Z,0.73
2022-09-26T13:08:19.309Z,1.30
2022-09-26T13:11:54.137Z,0.80
2022-09-26T13:15:36.001Z,1.23
2022-09-26T13:18:45.555Z,1.05
2022-09-26T13:21:56.359Z,2.72
2022-09-26T13:25:19.061Z,1.27
2022-09-26T13:28:28.625Z,1.17
2022-09-26T13:31:35.826Z,1.20
2022-09-26T13:34:47.848Z,1.00
2022-09-26T13:38:16.925Z,0.98
2022-09-26T13:41:38.641Z,0.93
2022-09-26T13:45:20.278Z,1.00
2022-09-26T13:48:34.660Z,1.40
2022-09-26T13:51:49.677Z,1.00
2022-09-26T13:54:57.905Z,0.80
2022-09-26T13:58:07.438Z,1.20
2022-09-26T14:01:26.538Z,1.13
2022-09-26T14:04:36.676Z,1.45
2022-09-26T14:07:58.599Z,1.20
2022-09-26T14:11:12.065Z,1.20
2022-09-26T14:14:18.238Z,1.25
2022-09-26T14:17:43.396Z,0.90
2022-09-26T14:21:13.291Z,1.20
2022-09-26T14:24:36.465Z,1.02
2022-09-26T14:27:38.365Z,0.98
2022-09-26T14:30:40.576Z,1.08
2022-09-26T14:33:44.252Z,1.30
2022-09-26T14:36:47.527Z,1.08
2022-09-26T14:40:01.569Z,1.20
2022-09-26T14:43:11.655Z,1.48
2022-09-26T14:46:19.147Z,0.80
2022-09-26T14:49:26.549Z,0.93
2022-09-26T14:52:29.522Z,0.98
2022-09-26T14:55:31.534Z,1.10
2022-09-26T14:58:49.830Z,0.90
2022-09-26T15:01:53.276Z,0.90
2022-09-26T15:05:11.495Z,1.02
2022-09-26T15:08:24.324Z,1.00
2022-09-26T15:11:32.831Z,0.68
2022-09-26T15:14:47.055Z,0.80
2022-09-26T15:17:55.811Z,1.08
2022-09-26T15:21:21.109Z,0.85
2022-09-26T15:24:27.803Z,1.00
2022-09-26T15:27:29.946Z,0.80
2022-09-26T15:30:37.289Z,0.85
2022-09-26T15:33:39.588Z,1.05
2022-09-26T15:36:42.810Z,0.80
2022-09-26T15:39:44.615Z,0.70
2022-09-26T15:43:02.920Z,0.60
2022-09-26T15:46:21.207Z,0.82
2022-09-26T15:49:24.572Z,1.00
2022-09-26T15:52:26.477Z,0.82
2022-09-26T15:55:33.712Z,1.17
2022-09-26T15:58:39.776Z,1.00
